createdAt,value
2023-03-17T10:39:12.525Z,1101.00
2023-03-17T10:43:12.549Z,1099.00
2023-03-17T10:47:12.549Z,1098.00
2023-03-17T10:51:12.178Z,1105.00
2023-03-17T10:55:12.160Z,1114.00
2023-03-17T10:59:12.150Z,1081.00
2023-03-17T11:03:12.069Z,1044.00
2023-03-17T11:07:12.130Z,1062.00
2023-03-17T11:11:13.071Z,1054.00
2023-03-17T11:15:13.030Z,1039.00
2023-03-17T11:19:13.030Z,1028.00
2023-03-17T11:23:13.021Z,1029.00
2023-03-17T11:27:13.074Z,785.00
2023-03-17T11:47:13.202Z,537.00
2023-03-17T13:11:15.117Z,525.00
2023-03-17T13:39:19.728Z,518.00
2023-03-17T13:47:15.266Z,516.00
2023-03-17T13:51:15.542Z,510.00
2023-03-17T13:55:15.277Z,515.00
2023-03-17T13:59:15.584Z,516.00
2023-03-17T14:03:15.303Z,516.00
2023-03-17T14:07:15.386Z,512.00
2023-03-17T14:11:15.460Z,509.00
2023-03-17T14:15:15.569Z,503.00
2023-03-17T14:19:15.659Z,504.00
2023-03-17T14:23:15.769Z,504.00
2023-03-17T14:27:15.860Z,504.00
2023-03-17T14:31:15.972Z,499.00
2023-03-17T14:35:16.046Z,492.00
2023-03-17T14:39:16.145Z,498.00
2023-03-17T14:43:16.351Z,496.00
2023-03-17T14:47:16.367Z,494.00
2023-03-17T14:51:16.608Z,496.00
2023-03-17T14:55:16.620Z,503.00
2023-03-17T14:59:17.115Z,504.00
2023-03-17T15:03:17.121Z,502.00
2023-03-17T15:07:17.119Z,502.00
2023-03-17T15:11:17.120Z,502.00
2023-03-17T15:19:17.398Z,502.00
2023-03-17T15:31:17.883Z,495.00
2023-03-17T15:35:18.018Z,500.00
2023-03-17T16:19:19.706Z,490.00
2023-03-17T17:03:20.064Z,485.00
2023-03-17T17:07:20.113Z,486.00
2023-03-17T17:11:20.290Z,480.00
2023-03-17T17:15:20.376Z,481.00
2023-03-17T17:19:20.896Z,482.00
2023-03-17T22:43:24.134Z,502.00
2023-03-17T22:47:24.301Z,500.00
2023-03-17T22:51:24.822Z,502.00
2023-03-17T22:55:24.815Z,496.00
2023-03-17T22:59:24.828Z,498.00
2023-03-17T23:03:24.894Z,496.00
2023-03-17T23:07:25.322Z,495.00
2023-03-17T23:11:25.850Z,499.00
2023-03-17T23:15:25.405Z,502.00
2023-03-17T23:19:25.315Z,503.00
2023-03-17T23:23:25.397Z,506.00
2023-03-17T23:27:25.550Z,499.00
2023-03-17T23:31:25.811Z,500.00
2023-03-17T23:35:25.847Z,501.00
2023-03-17T23:39:26.332Z,504.00
2023-03-17T23:43:26.088Z,497.00
2023-03-17T23:47:26.373Z,498.00
2023-03-17T23:51:26.830Z,494.00
2023-03-17T23:55:26.821Z,496.00
2023-03-17T23:59:26.637Z,496.00
